sensor_id;sensor_type;location;lat;lon;timestamp;temperature;humidity
28532;DHT22;15738;44.860;10.066;2022-10-22T00:02:22;16.40;99.90
28532;DHT22;15738;44.860;10.066;2022-10-22T00:05:09;16.50;99.90
28532;DHT22;15738;44.860;10.066;2022-10-22T00:07:55;16.50;99.90
28532;DHT22;15738;44.860;10.066;2022-10-22T00:10:41;16.50;99.90
28532;DHT22;15738;44.860;10.066;2022-10-22T00:13:27;16.60;99.90
28532;DHT22;15738;44.860;10.066;2022-10-22T00:16:12;16.50;99.90
28532;DHT22;15738;44.860;10.066;2022-10-22T00:18:58;16.60;99.90
28532;DHT22;15738;44.860;10.066;2022-10-22T00:21:44;16.60;99.90
28532;DHT22;15738;44.860;10.066;2022-10-22T00:24:30;16.60;99.90
28532;DHT22;15738;44.860;10.066;2022-10-22T00:27:15;16.60;99.90
28532;DHT22;15738;44.860;10.066;2022-10-22T00:30:01;16.60;99.90
28532;DHT22;15738;44.860;10.066;2022-10-22T00:32:46;16.50;99.90
28532;DHT22;15738;44.860;10.066;2022-10-22T00:35:32;16.50;99.90
28532;DHT22;15738;44.860;10.066;2022-10-22T00:38:18;16.40;99.90
28532;DHT22;15738;44.860;10.066;2022-10-22T00:41:03;16.40;99.90
28532;DHT22;15738;44.860;10.066;2022-10-22T00:43:54;16.40;99.90
28532;DHT22;15738;44.860;10.066;2022-10-22T00:46:40;16.40;99.90
28532;DHT22;15738;44.860;10.066;2022-10-22T00:49:25;16.30;99.90
28532;DHT22;15738;44.860;10.066;2022-10-22T00:52:12;16.30;99.90
28532;DHT22;15738;44.860;10.066;2022-10-22T00:54:59;16.40;99.90
28532;DHT22;15738;44.860;10.066;2022-10-22T00:57:45;16.40;99.90
28532;DHT22;15738;44.860;10.066;2022-10-22T01:00:31;16.30;99.90
28532;DHT22;15738;44.860;10.066;2022-10-22T01:03:17;16.30;99.90
28532;DHT22;15738;44.860;10.066;2022-10-22T01:06:04;16.30;99.90
28532;DHT22;15738;44.860;10.066;2022-10-22T01:09:22;16.30;99.90
28532;DHT22;15738;44.860;10.066;2022-10-22T01:15:42;16.30;99.90
28532;DHT22;15738;44.860;10.066;2022-10-22T01:21:55;16.20;99.90
28532;DHT22;15738;44.860;10.066;2022-10-22T01:30:45;16.30;99.90
28532;DHT22;15738;44.860;10.066;2022-10-22T01:33:33;16.30;99.90
28532;DHT22;15738;44.860;10.066;2022-10-22T01:36:20;16.20;99.90
28532;DHT22;15738;44.860;10.066;2022-10-22T01:39:07;16.20;99.90
28532;DHT22;15738;44.860;10.066;2022-10-22T01:41:55;16.20;99.90
28532;DHT22;15738;44.860;10.066;2022-10-22T01:44:40;16.20;99.90
28532;DHT22;15738;44.860;10.066;2022-10-22T01:47:44;16.20;99.90
28532;DHT22;15738;44.860;10.066;2022-10-22T01:50:44;16.20;99.90
28532;DHT22;15738;44.860;10.066;2022-10-22T01:56:54;16.20;99.90
28532;DHT22;15738;44.860;10.066;2022-10-22T01:59:49;16.10;99.90
28532;DHT22;15738;44.860;10.066;2022-10-22T02:02:43;16.10;99.90
28532;DHT22;15738;44.860;10.066;2022-10-22T02:05:46;16.10;99.90
28532;DHT22;15738;44.860;10.066;2022-10-22T02:08:34;16.10;99.90
28532;DHT22;15738;44.860;10.066;2022-10-22T02:11:20;16.10;99.90
28532;DHT22;15738;44.860;10.066;2022-10-22T02:14:06;16.00;99.90
28532;DHT22;15738;44.860;10.066;2022-10-22T02:16:53;16.10;99.90
28532;DHT22;15738;44.860;10.066;2022-10-22T02:22:39;16.00;99.90
28532;DHT22;15738;44.860;10.066;2022-10-22T02:25:30;16.00;99.90
28532;DHT22;15738;44.860;10.066;2022-10-22T02:28:28;16.00;99.90
28532;DHT22;15738;44.860;10.066;2022-10-22T02:31:22;16.00;99.90
28532;DHT22;15738;44.860;10.066;2022-10-22T02:34:12;16.00;99.90
28532;DHT22;15738;44.860;10.066;2022-10-22T02:37:00;16.10;99.90
28532;DHT22;15738;44.860;10.066;2022-10-22T02:39:46;16.00;99.90
28532;DHT22;15738;44.860;10.066;2022-10-22T02:42:33;16.00;99.90
28532;DHT22;15738;44.860;10.066;2022-10-22T02:45:20;16.00;99.90
28532;DHT22;15738;44.860;10.066;2022-10-22T02:48:06;16.00;99.90
28532;DHT22;15738;44.860;10.066;2022-10-22T02:50:52;16.10;99.90
28532;DHT22;15738;44.860;10.066;2022-10-22T02:53:37;16.10;99.90
28532;DHT22;15738;44.860;10.066;2022-10-22T02:56:23;16.00;99.90
28532;DHT22;15738;44.860;10.066;2022-10-22T02:59:09;16.00;99.90
28532;DHT22;15738;44.860;10.066;2022-10-22T03:01:54;16.00;99.90
28532;DHT22;15738;44.860;10.066;2022-10-22T03:04:40;16.00;99.90
28532;DHT22;15738;44.860;10.066;2022-10-22T03:07:26;16.00;99.90
28532;DHT22;15738;44.860;10.066;2022-10-22T03:10:12;16.00;99.90
28532;DHT22;15738;44.860;10.066;2022-10-22T03:12:58;15.90;99.90
28532;DHT22;15738;44.860;10.066;2022-10-22T03:15:43;16.00;99.90
28532;DHT22;15738;44.860;10.066;2022-10-22T03:18:29;15.90;99.90
28532;DHT22;15738;44.860;10.066;2022-10-22T03:24:14;15.90;99.90
28532;DHT22;15738;44.860;10.066;2022-10-22T03:27:01;15.90;99.90
28532;DHT22;15738;44.860;10.066;2022-10-22T03:29:48;15.90;99.90
28532;DHT22;15738;44.860;10.066;2022-10-22T03:32:34;15.90;99.90
28532;DHT22;15738;44.860;10.066;2022-10-22T03:35:20;15.90;99.90
28532;DHT22;15738;44.860;10.066;2022-10-22T03:38:05;15.80;99.90
28532;DHT22;15738;44.860;10.066;2022-10-22T03:40:52;15.80;99.90
28532;DHT22;15738;44.860;10.066;2022-10-22T03:43:37;15.80;99.90
28532;DHT22;15738;44.860;10.066;2022-10-22T03:46:25;15.80;99.90
28532;DHT22;15738;44.860;10.066;2022-10-22T03:49:11;15.70;99.90
28532;DHT22;15738;44.860;10.066;2022-10-22T03:51:56;15.80;99.90
28532;DHT22;15738;44.860;10.066;2022-10-22T03:54:42;15.70;99.90
28532;DHT22;15738;44.860;10.066;2022-10-22T03:57:28;15.80;99.90
28532;DHT22;15738;44.860;10.066;2022-10-22T04:00:14;15.80;99.90
28532;DHT22;15738;44.860;10.066;2022-10-22T04:03:00;15.90;99.90
28532;DHT22;15738;44.860;10.066;2022-10-22T04:05:46;15.90;99.90
28532;DHT22;15738;44.860;10.066;2022-10-22T04:08:32;15.80;99.90
28532;DHT22;15738;44.860;10.066;2022-10-22T04:11:18;15.80;99.90
28532;DHT22;15738;44.860;10.066;2022-10-22T04:14:04;15.80;99.90
28532;DHT22;15738;44.860;10.066;2022-10-22T04:16:50;15.70;99.90
28532;DHT22;15738;44.860;10.066;2022-10-22T04:19:35;15.80;99.90
28532;DHT22;15738;44.860;10.066;2022-10-22T04:22:21;15.70;99.90
28532;DHT22;15738;44.860;10.066;2022-10-22T04:25:07;15.70;99.90
28532;DHT22;15738;44.860;10.066;2022-10-22T04:27:52;15.70;99.90
28532;DHT22;15738;44.860;10.066;2022-10-22T04:30:38;15.70;99.90
28532;DHT22;15738;44.860;10.066;2022-10-22T04:33:24;15.80;99.90
28532;DHT22;15738;44.860;10.066;2022-10-22T04:36:15;15.70;99.90
28532;DHT22;15738;44.860;10.066;2022-10-22T04:39:03;15.80;99.90
28532;DHT22;15738;44.860;10.066;2022-10-22T04:41:48;15.80;99.90
28532;DHT22;15738;44.860;10.066;2022-10-22T04:44:34;15.80;99.90
28532;DHT22;15738;44.860;10.066;2022-10-22T04:47:20;15.80;99.90
28532;DHT22;15738;44.860;10.066;2022-10-22T04:50:06;15.90;99.90
28532;DHT22;15738;44.860;10.066;2022-10-22T04:52:51;15.90;99.90
28532;DHT22;15738;44.860;10.066;2022-10-22T04:55:37;15.80;99.90
28532;DHT22;15738;44.860;10.066;2022-10-22T04:58:23;15.80;99.90
28532;DHT22;15738;44.860;10.066;2022-10-22T05:01:22;15.80;99.90
28532;DHT22;15738;44.860;10.066;2022-10-22T05:04:12;15.80;99.90
28532;DHT22;15738;44.860;10.066;2022-10-22T05:06:58;15.80;99.90
28532;DHT22;15738;44.860;10.066;2022-10-22T05:09:44;15.80;99.90
28532;DHT22;15738;44.860;10.066;2022-10-22T05:12:30;15.80;99.90
28532;DHT22;15738;44.860;10.066;2022-10-22T05:15:16;15.80;99.90
28532;DHT22;15738;44.860;10.066;2022-10-22T05:18:01;15.80;99.90
28532;DHT22;15738;44.860;10.066;2022-10-22T05:20:47;15.80;99.90
28532;DHT22;15738;44.860;10.066;2022-10-22T05:23:32;15.80;99.90
28532;DHT22;15738;44.860;10.066;2022-10-22T05:26:19;15.80;99.90
28532;DHT22;15738;44.860;10.066;2022-10-22T05:29:06;15.80;99.90
28532;DHT22;15738;44.860;10.066;2022-10-22T05:31:52;15.80;99.90
28532;DHT22;15738;44.860;10.066;2022-10-22T05:34:38;15.80;99.90
28532;DHT22;15738;44.860;10.066;2022-10-22T05:37:23;15.80;99.90
28532;DHT22;15738;44.860;10.066;2022-10-22T05:40:09;15.80;99.90
28532;DHT22;15738;44.860;10.066;2022-10-22T05:43:11;15.80;99.90
28532;DHT22;15738;44.860;10.066;2022-10-22T05:46:01;15.90;99.90
28532;DHT22;15738;44.860;10.066;2022-10-22T05:48:56;15.90;99.90
28532;DHT22;15738;44.860;10.066;2022-10-22T05:51:43;15.90;99.90
28532;DHT22;15738;44.860;10.066;2022-10-22T05:54:29;15.90;99.90
28532;DHT22;15738;44.860;10.066;2022-10-22T05:57:14;15.90;99.90
28532;DHT22;15738;44.860;10.066;2022-10-22T06:00:00;15.90;99.90
28532;DHT22;15738;44.860;10.066;2022-10-22T06:02:49;16.00;99.90
28532;DHT22;15738;44.860;10.066;2022-10-22T06:05:36;16.00;99.90
28532;DHT22;15738;44.860;10.066;2022-10-22T06:08:22;16.00;99.90
28532;DHT22;15738;44.860;10.066;2022-10-22T06:11:08;16.00;99.90
28532;DHT22;15738;44.860;10.066;2022-10-22T06:13:53;16.10;99.90
28532;DHT22;15738;44.860;10.066;2022-10-22T06:17:12;16.10;99.90
28532;DHT22;15738;44.860;10.066;2022-10-22T06:19:58;16.10;99.90
28532;DHT22;15738;44.860;10.066;2022-10-22T06:22:44;16.10;99.90
28532;DHT22;15738;44.860;10.066;2022-10-22T06:25:29;16.10;99.90
28532;DHT22;15738;44.860;10.066;2022-10-22T06:28:15;16.10;99.90
28532;DHT22;15738;44.860;10.066;2022-10-22T06:31:03;16.20;99.90
28532;DHT22;15738;44.860;10.066;2022-10-22T06:33:49;16.20;99.90
28532;DHT22;15738;44.860;10.066;2022-10-22T06:36:35;16.20;99.90
28532;DHT22;15738;44.860;10.066;2022-10-22T06:39:21;16.30;99.90
28532;DHT22;15738;44.860;10.066;2022-10-22T06:42:06;16.40;99.90
28532;DHT22;15738;44.860;10.066;2022-10-22T06:44:52;16.40;99.90
28532;DHT22;15738;44.860;10.066;2022-10-22T06:47:38;16.50;99.90
28532;DHT22;15738;44.860;10.066;2022-10-22T06:50:24;16.50;99.90
28532;DHT22;15738;44.860;10.066;2022-10-22T06:53:09;16.60;99.90
28532;DHT22;15738;44.860;10.066;2022-10-22T06:55:55;16.70;99.90
28532;DHT22;15738;44.860;10.066;2022-10-22T06:58:41;16.80;99.90
28532;DHT22;15738;44.860;10.066;2022-10-22T07:01:29;17.00;99.90
28532;DHT22;15738;44.860;10.066;2022-10-22T07:04:16;17.10;99.90
28532;DHT22;15738;44.860;10.066;2022-10-22T07:07:03;17.20;99.90
28532;DHT22;15738;44.860;10.066;2022-10-22T07:09:50;17.30;99.90
28532;DHT22;15738;44.860;10.066;2022-10-22T07:12:38;17.30;99.90
28532;DHT22;15738;44.860;10.066;2022-10-22T07:15:24;17.40;99.90
28532;DHT22;15738;44.860;10.066;2022-10-22T07:18:10;18.40;99.90
28532;DHT22;15738;44.860;10.066;2022-10-22T07:20:56;17.60;99.90
28532;DHT22;15738;44.860;10.066;2022-10-22T07:23:42;17.80;99.90
28532;DHT22;15738;44.860;10.066;2022-10-22T07:26:28;17.90;99.90
28532;DHT22;15738;44.860;10.066;2022-10-22T07:29:17;18.00;99.90
28532;DHT22;15738;44.860;10.066;2022-10-22T07:32:02;18.10;99.90
28532;DHT22;15738;44.860;10.066;2022-10-22T07:34:48;18.10;99.90
28532;DHT22;15738;44.860;10.066;2022-10-22T07:37:34;18.10;99.90
28532;DHT22;15738;44.860;10.066;2022-10-22T07:40:19;18.20;99.90
28532;DHT22;15738;44.860;10.066;2022-10-22T07:43:05;18.20;99.90
28532;DHT22;15738;44.860;10.066;2022-10-22T07:45:51;18.30;99.90
28532;DHT22;15738;44.860;10.066;2022-10-22T07:48:37;18.40;99.90
28532;DHT22;15738;44.860;10.066;2022-10-22T07:51:23;18.40;99.90
28532;DHT22;15738;44.860;10.066;2022-10-22T07:54:08;18.40;99.90
28532;DHT22;15738;44.860;10.066;2022-10-22T07:56:54;18.50;99.90
28532;DHT22;15738;44.860;10.066;2022-10-22T07:59:40;18.60;99.90
28532;DHT22;15738;44.860;10.066;2022-10-22T08:02:25;18.60;99.90
28532;DHT22;15738;44.860;10.066;2022-10-22T08:05:11;18.60;99.90
28532;DHT22;15738;44.860;10.066;2022-10-22T08:08:01;18.50;99.90
28532;DHT22;15738;44.860;10.066;2022-10-22T08:10:47;18.50;99.90
28532;DHT22;15738;44.860;10.066;2022-10-22T08:13:35;18.40;99.90
28532;DHT22;15738;44.860;10.066;2022-10-22T08:16:24;18.30;99.90
28532;DHT22;15738;44.860;10.066;2022-10-22T08:19:09;18.30;99.90
28532;DHT22;15738;44.860;10.066;2022-10-22T08:21:55;18.30;99.90
28532;DHT22;15738;44.860;10.066;2022-10-22T08:24:41;18.30;99.90
28532;DHT22;15738;44.860;10.066;2022-10-22T08:27:26;18.30;99.90
28532;DHT22;15738;44.860;10.066;2022-10-22T08:30:13;18.30;99.90
28532;DHT22;15738;44.860;10.066;2022-10-22T08:32:59;18.30;99.90
28532;DHT22;15738;44.860;10.066;2022-10-22T08:35:48;18.30;99.90
28532;DHT22;15738;44.860;10.066;2022-10-22T08:38:34;18.30;99.90
28532;DHT22;15738;44.860;10.066;2022-10-22T08:41:21;18.30;99.90
28532;DHT22;15738;44.860;10.066;2022-10-22T08:47:19;18.50;99.90
28532;DHT22;15738;44.860;10.066;2022-10-22T08:50:11;18.60;99.90
28532;DHT22;15738;44.860;10.066;2022-10-22T08:53:03;18.70;99.90
28532;DHT22;15738;44.860;10.066;2022-10-22T08:55:53;18.70;99.90
28532;DHT22;15738;44.860;10.066;2022-10-22T08:59:13;18.70;99.90
28532;DHT22;15738;44.860;10.066;2022-10-22T09:02:07;18.70;99.90
28532;DHT22;15738;44.860;10.066;2022-10-22T09:07:56;18.90;99.90
28532;DHT22;15738;44.860;10.066;2022-10-22T09:10:48;19.00;99.90
28532;DHT22;15738;44.860;10.066;2022-10-22T09:13:34;19.20;99.90
28532;DHT22;15738;44.860;10.066;2022-10-22T09:25:43;19.20;99.90
28532;DHT22;15738;44.860;10.066;2022-10-22T09:28:21;19.20;99.90
28532;DHT22;15738;44.860;10.066;2022-10-22T09:31:11;19.20;99.90
28532;DHT22;15738;44.860;10.066;2022-10-22T09:33:58;19.30;99.90
28532;DHT22;15738;44.860;10.066;2022-10-22T09:36:58;19.30;99.90
28532;DHT22;15738;44.860;10.066;2022-10-22T09:39:57;19.30;99.90
28532;DHT22;15738;44.860;10.066;2022-10-22T09:42:48;19.40;99.90
28532;DHT22;15738;44.860;10.066;2022-10-22T09:45:34;19.60;99.90
28532;DHT22;15738;44.860;10.066;2022-10-22T09:48:22;19.70;99.90
28532;DHT22;15738;44.860;10.066;2022-10-22T09:51:26;19.90;99.90
28532;DHT22;15738;44.860;10.066;2022-10-22T09:57:21;20.10;99.90
28532;DHT22;15738;44.860;10.066;2022-10-22T10:00:09;20.30;99.90
28532;DHT22;15738;44.860;10.066;2022-10-22T10:02:59;20.40;99.90
28532;DHT22;15738;44.860;10.066;2022-10-22T10:05:54;20.40;99.90
28532;DHT22;15738;44.860;10.066;2022-10-22T10:08:48;20.40;99.90
28532;DHT22;15738;44.860;10.066;2022-10-22T10:11:45;20.40;99.90
28532;DHT22;15738;44.860;10.066;2022-10-22T10:14:38;20.60;99.90
28532;DHT22;15738;44.860;10.066;2022-10-22T10:33:02;20.80;99.90
28532;DHT22;15738;44.860;10.066;2022-10-22T10:36:01;20.80;99.90
28532;DHT22;15738;44.860;10.066;2022-10-22T10:39:07;20.80;99.90
28532;DHT22;15738;44.860;10.066;2022-10-22T10:45:26;21.00;99.90
28532;DHT22;15738;44.860;10.066;2022-10-22T10:48:42;21.00;99.90
28532;DHT22;15738;44.860;10.066;2022-10-22T10:58:38;20.90;99.90
28532;DHT22;15738;44.860;10.066;2022-10-22T11:01:26;21.10;99.90
28532;DHT22;15738;44.860;10.066;2022-10-22T11:08:20;21.20;99.90
28532;DHT22;15738;44.860;10.066;2022-10-22T11:11:01;21.30;99.90
28532;DHT22;15738;44.860;10.066;2022-10-22T11:14:08;21.20;99.90
28532;DHT22;15738;44.860;10.066;2022-10-22T11:17:13;21.20;99.90
28532;DHT22;15738;44.860;10.066;2022-10-22T11:23:36;21.50;99.90
28532;DHT22;15738;44.860;10.066;2022-10-22T11:26:32;21.50;99.90
28532;DHT22;15738;44.860;10.066;2022-10-22T11:29:27;21.40;99.90
28532;DHT22;15738;44.860;10.066;2022-10-22T11:32:19;21.40;99.90
28532;DHT22;15738;44.860;10.066;2022-10-22T11:35:10;21.40;99.90
28532;DHT22;15738;44.860;10.066;2022-10-22T11:37:57;21.40;99.90
28532;DHT22;15738;44.860;10.066;2022-10-22T11:40:58;21.50;99.90
28532;DHT22;15738;44.860;10.066;2022-10-22T11:47:07;21.70;99.90
28532;DHT22;15738;44.860;10.066;2022-10-22T11:58:54;21.60;99.90
28532;DHT22;15738;44.860;10.066;2022-10-22T12:01:41;21.70;99.90
28532;DHT22;15738;44.860;10.066;2022-10-22T12:04:39;21.80;99.90
28532;DHT22;15738;44.860;10.066;2022-10-22T12:10:59;22.10;99.90
28532;DHT22;15738;44.860;10.066;2022-10-22T12:22:47;22.40;99.90
28532;DHT22;15738;44.860;10.066;2022-10-22T12:25:33;22.40;99.90
28532;DHT22;15738;44.860;10.066;2022-10-22T12:28:20;22.30;99.90
28532;DHT22;15738;44.860;10.066;2022-10-22T12:31:23;22.20;99.90
28532;DHT22;15738;44.860;10.066;2022-10-22T12:34:14;22.20;99.90
28532;DHT22;15738;44.860;10.066;2022-10-22T12:37:03;22.10;99.90
28532;DHT22;15738;44.860;10.066;2022-10-22T12:39:50;22.00;99.90
28532;DHT22;15738;44.860;10.066;2022-10-22T12:42:35;21.90;99.90
28532;DHT22;15738;44.860;10.066;2022-10-22T12:45:25;21.80;99.90
28532;DHT22;15738;44.860;10.066;2022-10-22T12:48:27;21.80;99.90
28532;DHT22;15738;44.860;10.066;2022-10-22T12:51:18;21.70;99.90
28532;DHT22;15738;44.860;10.066;2022-10-22T12:54:26;21.60;99.90
28532;DHT22;15738;44.860;10.066;2022-10-22T12:57:16;21.60;99.90
28532;DHT22;15738;44.860;10.066;2022-10-22T13:00:03;21.50;99.90
28532;DHT22;15738;44.860;10.066;2022-10-22T13:02:49;21.40;99.90
28532;DHT22;15738;44.860;10.066;2022-10-22T13:05:35;21.40;99.90
28532;DHT22;15738;44.860;10.066;2022-10-22T13:08:26;21.40;99.90
28532;DHT22;15738;44.860;10.066;2022-10-22T13:11:19;21.30;99.90
28532;DHT22;15738;44.860;10.066;2022-10-22T13:14:19;21.30;99.90
28532;DHT22;15738;44.860;10.066;2022-10-22T13:22:39;21.20;99.90
28532;DHT22;15738;44.860;10.066;2022-10-22T13:25:32;21.10;99.90
28532;DHT22;15738;44.860;10.066;2022-10-22T13:28:20;21.10;99.90
28532;DHT22;15738;44.860;10.066;2022-10-22T13:31:33;21.10;99.90
28532;DHT22;15738;44.860;10.066;2022-10-22T13:34:23;21.10;99.90
28532;DHT22;15738;44.860;10.066;2022-10-22T13:37:10;21.20;99.90
28532;DHT22;15738;44.860;10.066;2022-10-22T13:39:55;21.20;99.90
28532;DHT22;15738;44.860;10.066;2022-10-22T13:42:41;21.20;99.90
28532;DHT22;15738;44.860;10.066;2022-10-22T13:45:27;21.20;99.90
28532;DHT22;15738;44.860;10.066;2022-10-22T13:48:19;21.20;99.90
28532;DHT22;15738;44.860;10.066;2022-10-22T13:51:14;21.20;99.90
28532;DHT22;15738;44.860;10.066;2022-10-22T13:53:59;21.20;99.90
28532;DHT22;15738;44.860;10.066;2022-10-22T13:56:46;21.20;99.90
28532;DHT22;15738;44.860;10.066;2022-10-22T13:59:31;21.10;99.90
28532;DHT22;15738;44.860;10.066;2022-10-22T14:02:18;21.10;99.90
28532;DHT22;15738;44.860;10.066;2022-10-22T14:05:04;21.10;99.90
28532;DHT22;15738;44.860;10.066;2022-10-22T14:07:53;21.10;99.90
28532;DHT22;15738;44.860;10.066;2022-10-22T14:10:39;21.10;99.90
28532;DHT22;15738;44.860;10.066;2022-10-22T14:13:25;21.10;99.90
28532;DHT22;15738;44.860;10.066;2022-10-22T14:16:19;21.10;99.90
28532;DHT22;15738;44.860;10.066;2022-10-22T14:19:07;21.10;99.90
28532;DHT22;15738;44.860;10.066;2022-10-22T14:21:55;21.10;99.90
28532;DHT22;15738;44.860;10.066;2022-10-22T14:24:41;21.10;99.90
28532;DHT22;15738;44.860;10.066;2022-10-22T14:27:27;21.10;99.90
28532;DHT22;15738;44.860;10.066;2022-10-22T14:30:23;21.10;99.90
28532;DHT22;15738;44.860;10.066;2022-10-22T14:36:02;21.00;99.90
28532;DHT22;15738;44.860;10.066;2022-10-22T14:38:48;21.00;99.90
28532;DHT22;15738;44.860;10.066;2022-10-22T14:41:34;20.90;99.90
28532;DHT22;15738;44.860;10.066;2022-10-22T14:44:20;20.80;99.90
28532;DHT22;15738;44.860;10.066;2022-10-22T14:47:06;20.80;99.90
28532;DHT22;15738;44.860;10.066;2022-10-22T14:49:52;20.80;99.90
28532;DHT22;15738;44.860;10.066;2022-10-22T14:52:38;20.80;99.90
28532;DHT22;15738;44.860;10.066;2022-10-22T14:55:24;20.80;99.90
28532;DHT22;15738;44.860;10.066;2022-10-22T14:58:12;20.80;99.90
28532;DHT22;15738;44.860;10.066;2022-10-22T15:01:01;20.80;99.90
28532;DHT22;15738;44.860;10.066;2022-10-22T15:03:46;20.70;99.90
28532;DHT22;15738;44.860;10.066;2022-10-22T15:06:32;20.70;99.90
28532;DHT22;15738;44.860;10.066;2022-10-22T15:09:18;20.70;99.90
28532;DHT22;15738;44.860;10.066;2022-10-22T15:12:04;20.70;99.90
28532;DHT22;15738;44.860;10.066;2022-10-22T15:14:49;20.70;99.90
28532;DHT22;15738;44.860;10.066;2022-10-22T15:17:36;20.60;99.90
28532;DHT22;15738;44.860;10.066;2022-10-22T15:20:22;20.60;99.90
28532;DHT22;15738;44.860;10.066;2022-10-22T15:23:08;20.60;99.90
28532;DHT22;15738;44.860;10.066;2022-10-22T15:25:54;20.60;99.90
28532;DHT22;15738;44.860;10.066;2022-10-22T15:28:41;20.50;99.90
28532;DHT22;15738;44.860;10.066;2022-10-22T15:34:33;20.50;99.90
28532;DHT22;15738;44.860;10.066;2022-10-22T15:37:19;20.50;99.90
28532;DHT22;15738;44.860;10.066;2022-10-22T15:40:05;20.40;99.90
28532;DHT22;15738;44.860;10.066;2022-10-22T15:42:52;20.40;99.90
28532;DHT22;15738;44.860;10.066;2022-10-22T15:45:38;20.40;99.90
28532;DHT22;15738;44.860;10.066;2022-10-22T15:48:24;20.40;99.90
28532;DHT22;15738;44.860;10.066;2022-10-22T15:51:12;20.30;99.90
28532;DHT22;15738;44.860;10.066;2022-10-22T15:53:58;20.30;99.90
28532;DHT22;15738;44.860;10.066;2022-10-22T15:56:44;20.30;99.90
28532;DHT22;15738;44.860;10.066;2022-10-22T15:59:30;20.20;99.90
28532;DHT22;15738;44.860;10.066;2022-10-22T16:02:15;20.20;99.90
28532;DHT22;15738;44.860;10.066;2022-10-22T16:05:01;20.20;99.90
28532;DHT22;15738;44.860;10.066;2022-10-22T16:07:47;20.10;99.90
28532;DHT22;15738;44.860;10.066;2022-10-22T16:10:32;20.10;99.90
28532;DHT22;15738;44.860;10.066;2022-10-22T16:13:19;20.10;99.90
28532;DHT22;15738;44.860;10.066;2022-10-22T16:16:06;20.00;99.90
28532;DHT22;15738;44.860;10.066;2022-10-22T16:18:55;20.00;99.90
28532;DHT22;15738;44.860;10.066;2022-10-22T16:21:41;20.00;99.90
28532;DHT22;15738;44.860;10.066;2022-10-22T16:24:26;20.00;99.90
28532;DHT22;15738;44.860;10.066;2022-10-22T16:27:12;19.90;99.90
28532;DHT22;15738;44.860;10.066;2022-10-22T16:29:58;19.90;99.90
28532;DHT22;15738;44.860;10.066;2022-10-22T16:32:43;19.90;99.90
28532;DHT22;15738;44.860;10.066;2022-10-22T16:35:29;19.90;99.90
28532;DHT22;15738;44.860;10.066;2022-10-22T16:38:15;19.90;99.90
28532;DHT22;15738;44.860;10.066;2022-10-22T16:41:11;19.80;99.90
28532;DHT22;15738;44.860;10.066;2022-10-22T16:43:58;19.80;99.90
28532;DHT22;15738;44.860;10.066;2022-10-22T16:46:47;19.70;99.90
28532;DHT22;15738;44.860;10.066;2022-10-22T16:49:32;19.70;99.90
28532;DHT22;15738;44.860;10.066;2022-10-22T16:52:18;19.70;99.90
28532;DHT22;15738;44.860;10.066;2022-10-22T16:55:04;19.70;99.90
28532;DHT22;15738;44.860;10.066;2022-10-22T16:57:51;19.70;99.90
28532;DHT22;15738;44.860;10.066;2022-10-22T17:00:37;19.60;99.90
28532;DHT22;15738;44.860;10.066;2022-10-22T17:03:23;19.60;99.90
28532;DHT22;15738;44.860;10.066;2022-10-22T17:06:13;19.60;99.90
28532;DHT22;15738;44.860;10.066;2022-10-22T17:08:59;19.50;99.90
28532;DHT22;15738;44.860;10.066;2022-10-22T17:11:45;19.50;99.90
28532;DHT22;15738;44.860;10.066;2022-10-22T17:14:31;19.40;99.90
28532;DHT22;15738;44.860;10.066;2022-10-22T17:17:17;19.40;99.90
28532;DHT22;15738;44.860;10.066;2022-10-22T17:20:03;19.40;99.90
28532;DHT22;15738;44.860;10.066;2022-10-22T17:22:49;19.30;99.90
28532;DHT22;15738;44.860;10.066;2022-10-22T17:25:41;19.30;99.90
28532;DHT22;15738;44.860;10.066;2022-10-22T17:28:28;19.20;99.90
28532;DHT22;15738;44.860;10.066;2022-10-22T17:34:09;19.10;99.90
28532;DHT22;15738;44.860;10.066;2022-10-22T17:36:58;19.10;99.90
28532;DHT22;15738;44.860;10.066;2022-10-22T17:39:45;19.10;99.90
28532;DHT22;15738;44.860;10.066;2022-10-22T17:42:30;19.00;99.90
28532;DHT22;15738;44.860;10.066;2022-10-22T17:45:16;19.00;99.90
28532;DHT22;15738;44.860;10.066;2022-10-22T17:48:02;19.00;99.90
28532;DHT22;15738;44.860;10.066;2022-10-22T17:50:48;18.90;99.90
28532;DHT22;15738;44.860;10.066;2022-10-22T17:53:40;18.80;99.90
28532;DHT22;15738;44.860;10.066;2022-10-22T17:56:32;18.80;99.90
28532;DHT22;15738;44.860;10.066;2022-10-22T17:59:17;18.80;99.90
28532;DHT22;15738;44.860;10.066;2022-10-22T18:02:04;18.70;99.90
28532;DHT22;15738;44.860;10.066;2022-10-22T18:04:50;18.70;99.90
28532;DHT22;15738;44.860;10.066;2022-10-22T18:07:37;18.70;99.90
28532;DHT22;15738;44.860;10.066;2022-10-22T18:10:23;18.70;99.90
28532;DHT22;15738;44.860;10.066;2022-10-22T18:13:12;18.70;99.90
28532;DHT22;15738;44.860;10.066;2022-10-22T18:15:57;18.60;99.90
28532;DHT22;15738;44.860;10.066;2022-10-22T18:18:47;18.70;99.90
28532;DHT22;15738;44.860;10.066;2022-10-22T18:21:33;18.60;99.90
28532;DHT22;15738;44.860;10.066;2022-10-22T18:24:19;18.60;99.90
28532;DHT22;15738;44.860;10.066;2022-10-22T18:27:05;18.60;99.90
28532;DHT22;15738;44.860;10.066;2022-10-22T18:29:51;18.50;99.90
28532;DHT22;15738;44.860;10.066;2022-10-22T18:32:36;18.50;99.90
28532;DHT22;15738;44.860;10.066;2022-10-22T18:35:22;18.50;99.90
28532;DHT22;15738;44.860;10.066;2022-10-22T18:38:11;18.40;99.90
28532;DHT22;15738;44.860;10.066;2022-10-22T18:40:57;18.40;99.90
28532;DHT22;15738;44.860;10.066;2022-10-22T18:43:43;18.40;99.90
28532;DHT22;15738;44.860;10.066;2022-10-22T18:46:30;18.30;99.90
28532;DHT22;15738;44.860;10.066;2022-10-22T18:49:17;18.20;99.90
28532;DHT22;15738;44.860;10.066;2022-10-22T18:52:04;18.20;99.90
28532;DHT22;15738;44.860;10.066;2022-10-22T18:54:49;18.20;99.90
28532;DHT22;15738;44.860;10.066;2022-10-22T18:57:35;18.10;99.90
28532;DHT22;15738;44.860;10.066;2022-10-22T19:00:20;18.10;99.90
28532;DHT22;15738;44.860;10.066;2022-10-22T19:03:06;18.10;99.90
28532;DHT22;15738;44.860;10.066;2022-10-22T19:05:54;18.00;99.90
28532;DHT22;15738;44.860;10.066;2022-10-22T19:08:46;18.00;99.90
28532;DHT22;15738;44.860;10.066;2022-10-22T19:11:35;18.00;99.90
28532;DHT22;15738;44.860;10.066;2022-10-22T19:14:21;18.00;99.90
28532;DHT22;15738;44.860;10.066;2022-10-22T19:17:07;17.90;99.90
28532;DHT22;15738;44.860;10.066;2022-10-22T19:19:52;17.90;99.90